sensor_id;sensor_type;location;lat;lon;timestamp;P1;durP1;ratioP1;P2;durP2;ratioP2
41043;SDS011;51680;49.806;18.774;2023-03-01T00:02:39;78.97;;;35.65;;
41043;SDS011;51680;49.806;18.774;2023-03-01T00:06:00;83.90;;;38.63;;
41043;SDS011;51680;49.806;18.774;2023-03-01T00:09:03;101.03;;;44.47;;
41043;SDS011;51680;49.806;18.774;2023-03-01T00:12:05;97.25;;;45.10;;
41043;SDS011;51680;49.806;18.774;2023-03-01T00:15:08;113.70;;;51.25;;
41043;SDS011;51680;49.806;18.774;2023-03-01T00:18:11;119.95;;;51.20;;
41043;SDS011;51680;49.806;18.774;2023-03-01T00:21:13;117.32;;;53.83;;
41043;SDS011;51680;49.806;18.774;2023-03-01T00:24:15;127.60;;;55.63;;
41043;SDS011;51680;49.806;18.774;2023-03-01T00:27:17;130.93;;;57.38;;
41043;SDS011;51680;49.806;18.774;2023-03-01T00:30:19;132.95;;;57.78;;
41043;SDS011;51680;49.806;18.774;2023-03-01T00:33:22;127.97;;;59.00;;
41043;SDS011;51680;49.806;18.774;2023-03-01T00:36:25;139.05;;;58.85;;
41043;SDS011;51680;49.806;18.774;2023-03-01T00:39:28;143.77;;;62.88;;
41043;SDS011;51680;49.806;18.774;2023-03-01T00:42:30;147.35;;;61.90;;
41043;SDS011;51680;49.806;18.774;2023-03-01T00:45:32;141.80;;;59.05;;
41043;SDS011;51680;49.806;18.774;2023-03-01T00:48:36;149.70;;;62.03;;
41043;SDS011;51680;49.806;18.774;2023-03-01T00:54:41;153.63;;;62.23;;
41043;SDS011;51680;49.806;18.774;2023-03-01T00:57:43;144.35;;;63.15;;
41043;SDS011;51680;49.806;18.774;2023-03-01T01:00:45;149.90;;;65.75;;
41043;SDS011;51680;49.806;18.774;2023-03-01T01:03:49;159.75;;;68.85;;
41043;SDS011;51680;49.806;18.774;2023-03-01T01:06:52;165.43;;;68.15;;
41043;SDS011;51680;49.806;18.774;2023-03-01T01:09:54;156.25;;;67.57;;
41043;SDS011;51680;49.806;18.774;2023-03-01T01:12:56;160.05;;;68.47;;
41043;SDS011;51680;49.806;18.774;2023-03-01T01:16:00;163.23;;;69.07;;
41043;SDS011;51680;49.806;18.774;2023-03-01T01:19:03;158.70;;;66.25;;
41043;SDS011;51680;49.806;18.774;2023-03-01T01:22:05;154.88;;;65.93;;
41043;SDS011;51680;49.806;18.774;2023-03-01T01:25:08;164.48;;;69.88;;
41043;SDS011;51680;49.806;18.774;2023-03-01T01:28:10;162.90;;;69.00;;
41043;SDS011;51680;49.806;18.774;2023-03-01T01:31:13;158.48;;;66.90;;
41043;SDS011;51680;49.806;18.774;2023-03-01T01:34:18;157.07;;;69.93;;
41043;SDS011;51680;49.806;18.774;2023-03-01T01:37:21;158.70;;;68.28;;
41043;SDS011;51680;49.806;18.774;2023-03-01T01:40:23;157.70;;;69.20;;
41043;SDS011;51680;49.806;18.774;2023-03-01T01:43:26;149.88;;;69.18;;
41043;SDS011;51680;49.806;18.774;2023-03-01T01:46:30;153.93;;;69.13;;
41043;SDS011;51680;49.806;18.774;2023-03-01T01:52:38;149.32;;;64.43;;
41043;SDS011;51680;49.806;18.774;2023-03-01T01:55:40;141.27;;;62.13;;
41043;SDS011;51680;49.806;18.774;2023-03-01T01:58:45;136.52;;;62.60;;
41043;SDS011;51680;49.806;18.774;2023-03-01T02:01:48;112.97;;;49.35;;
41043;SDS011;51680;49.806;18.774;2023-03-01T02:04:52;108.30;;;47.10;;
41043;SDS011;51680;49.806;18.774;2023-03-01T02:08:04;94.32;;;40.42;;
41043;SDS011;51680;49.806;18.774;2023-03-01T02:11:07;92.97;;;42.30;;
41043;SDS011;51680;49.806;18.774;2023-03-01T02:14:10;78.90;;;35.88;;
41043;SDS011;51680;49.806;18.774;2023-03-01T02:17:12;67.13;;;31.13;;
41043;SDS011;51680;49.806;18.774;2023-03-01T02:20:20;73.28;;;32.80;;
41043;SDS011;51680;49.806;18.774;2023-03-01T02:23:28;102.32;;;45.33;;
41043;SDS011;51680;49.806;18.774;2023-03-01T02:26:33;92.05;;;42.03;;
41043;SDS011;51680;49.806;18.774;2023-03-01T02:29:43;98.13;;;47.13;;
41043;SDS011;51680;49.806;18.774;2023-03-01T02:32:45;80.30;;;38.60;;
41043;SDS011;51680;49.806;18.774;2023-03-01T02:35:48;69.95;;;33.60;;
41043;SDS011;51680;49.806;18.774;2023-03-01T02:38:51;68.97;;;31.95;;
41043;SDS011;51680;49.806;18.774;2023-03-01T02:41:55;72.43;;;33.28;;
41043;SDS011;51680;49.806;18.774;2023-03-01T02:44:59;62.75;;;29.17;;
41043;SDS011;51680;49.806;18.774;2023-03-01T02:48:01;57.60;;;27.90;;
41043;SDS011;51680;49.806;18.774;2023-03-01T02:51:04;58.85;;;28.48;;
41043;SDS011;51680;49.806;18.774;2023-03-01T02:54:15;57.25;;;28.98;;
41043;SDS011;51680;49.806;18.774;2023-03-01T02:57:24;66.35;;;30.55;;
41043;SDS011;51680;49.806;18.774;2023-03-01T03:00:31;58.70;;;29.40;;
41043;SDS011;51680;49.806;18.774;2023-03-01T03:03:40;62.83;;;30.83;;
41043;SDS011;51680;49.806;18.774;2023-03-01T03:06:42;53.25;;;27.08;;
41043;SDS011;51680;49.806;18.774;2023-03-01T03:09:44;54.80;;;27.52;;
41043;SDS011;51680;49.806;18.774;2023-03-01T03:12:48;55.88;;;27.92;;
41043;SDS011;51680;49.806;18.774;2023-03-01T03:15:54;57.35;;;27.85;;
41043;SDS011;51680;49.806;18.774;2023-03-01T03:18:56;57.22;;;26.55;;
41043;SDS011;51680;49.806;18.774;2023-03-01T03:22:05;57.85;;;28.05;;
41043;SDS011;51680;49.806;18.774;2023-03-01T03:25:09;54.88;;;28.30;;
41043;SDS011;51680;49.806;18.774;2023-03-01T03:28:11;61.67;;;29.30;;
41043;SDS011;51680;49.806;18.774;2023-03-01T03:31:15;58.75;;;28.95;;
41043;SDS011;51680;49.806;18.774;2023-03-01T03:34:17;56.30;;;27.90;;
41043;SDS011;51680;49.806;18.774;2023-03-01T03:37:19;58.83;;;29.25;;
41043;SDS011;51680;49.806;18.774;2023-03-01T03:40:35;73.47;;;36.55;;
41043;SDS011;51680;49.806;18.774;2023-03-01T03:43:39;93.78;;;46.90;;
41043;SDS011;51680;49.806;18.774;2023-03-01T03:46:44;118.38;;;54.67;;
41043;SDS011;51680;49.806;18.774;2023-03-01T03:49:45;89.28;;;42.65;;
41043;SDS011;51680;49.806;18.774;2023-03-01T03:52:47;128.07;;;57.75;;
41043;SDS011;51680;49.806;18.774;2023-03-01T03:55:49;143.90;;;65.05;;
41043;SDS011;51680;49.806;18.774;2023-03-01T03:58:51;139.60;;;65.15;;
41043;SDS011;51680;49.806;18.774;2023-03-01T04:01:54;144.13;;;68.25;;
41043;SDS011;51680;49.806;18.774;2023-03-01T04:04:59;144.20;;;67.90;;
41043;SDS011;51680;49.806;18.774;2023-03-01T04:08:01;142.93;;;67.80;;
41043;SDS011;51680;49.806;18.774;2023-03-01T04:11:04;152.45;;;70.97;;
41043;SDS011;51680;49.806;18.774;2023-03-01T04:14:19;135.40;;;65.78;;
41043;SDS011;51680;49.806;18.774;2023-03-01T04:17:22;137.30;;;65.65;;
41043;SDS011;51680;49.806;18.774;2023-03-01T04:20:25;140.02;;;65.65;;
41043;SDS011;51680;49.806;18.774;2023-03-01T04:23:29;127.95;;;59.83;;
41043;SDS011;51680;49.806;18.774;2023-03-01T04:26:30;117.55;;;53.08;;
41043;SDS011;51680;49.806;18.774;2023-03-01T04:29:32;123.55;;;60.10;;
41043;SDS011;51680;49.806;18.774;2023-03-01T04:32:35;94.68;;;45.05;;
41043;SDS011;51680;49.806;18.774;2023-03-01T04:35:37;68.50;;;36.22;;
41043;SDS011;51680;49.806;18.774;2023-03-01T04:38:40;84.50;;;42.15;;
41043;SDS011;51680;49.806;18.774;2023-03-01T04:41:42;95.10;;;43.88;;
41043;SDS011;51680;49.806;18.774;2023-03-01T04:44:44;82.70;;;40.33;;
41043;SDS011;51680;49.806;18.774;2023-03-01T04:47:48;90.47;;;40.27;;
41043;SDS011;51680;49.806;18.774;2023-03-01T04:50:52;85.53;;;40.80;;
41043;SDS011;51680;49.806;18.774;2023-03-01T04:53:54;86.90;;;40.50;;
41043;SDS011;51680;49.806;18.774;2023-03-01T04:56:55;91.25;;;42.00;;
41043;SDS011;51680;49.806;18.774;2023-03-01T04:59:57;90.07;;;44.30;;
41043;SDS011;51680;49.806;18.774;2023-03-01T05:03:01;94.80;;;46.22;;
41043;SDS011;51680;49.806;18.774;2023-03-01T05:06:03;90.43;;;42.63;;
41043;SDS011;51680;49.806;18.774;2023-03-01T05:09:05;73.18;;;35.75;;
41043;SDS011;51680;49.806;18.774;2023-03-01T05:12:07;68.90;;;33.35;;
41043;SDS011;51680;49.806;18.774;2023-03-01T05:15:10;56.10;;;30.27;;
41043;SDS011;51680;49.806;18.774;2023-03-01T05:18:13;56.08;;;28.25;;
41043;SDS011;51680;49.806;18.774;2023-03-01T05:21:15;59.78;;;30.42;;
41043;SDS011;51680;49.806;18.774;2023-03-01T05:24:17;63.38;;;31.25;;
41043;SDS011;51680;49.806;18.774;2023-03-01T05:27:19;79.68;;;37.88;;
41043;SDS011;51680;49.806;18.774;2023-03-01T05:30:22;81.88;;;38.05;;
41043;SDS011;51680;49.806;18.774;2023-03-01T05:33:25;74.57;;;34.25;;
41043;SDS011;51680;49.806;18.774;2023-03-01T05:36:28;71.38;;;32.38;;
41043;SDS011;51680;49.806;18.774;2023-03-01T05:39:29;66.22;;;33.60;;
41043;SDS011;51680;49.806;18.774;2023-03-01T05:42:31;71.03;;;33.60;;
41043;SDS011;51680;49.806;18.774;2023-03-01T05:45:35;106.72;;;45.00;;
41043;SDS011;51680;49.806;18.774;2023-03-01T05:48:39;92.13;;;40.08;;
41043;SDS011;51680;49.806;18.774;2023-03-01T05:51:41;94.13;;;39.70;;
41043;SDS011;51680;49.806;18.774;2023-03-01T05:54:43;76.68;;;36.20;;
41043;SDS011;51680;49.806;18.774;2023-03-01T05:57:46;67.10;;;33.07;;
41043;SDS011;51680;49.806;18.774;2023-03-01T06:00:48;73.15;;;34.80;;
41043;SDS011;51680;49.806;18.774;2023-03-01T06:03:52;73.55;;;34.45;;
41043;SDS011;51680;49.806;18.774;2023-03-01T06:06:53;69.55;;;34.38;;
41043;SDS011;51680;49.806;18.774;2023-03-01T06:09:55;69.57;;;35.53;;
41043;SDS011;51680;49.806;18.774;2023-03-01T06:13:16;70.70;;;34.95;;
41043;SDS011;51680;49.806;18.774;2023-03-01T06:16:17;79.45;;;36.63;;
41043;SDS011;51680;49.806;18.774;2023-03-01T06:19:20;81.88;;;40.42;;
41043;SDS011;51680;49.806;18.774;2023-03-01T06:22:22;88.25;;;44.10;;
41043;SDS011;51680;49.806;18.774;2023-03-01T06:25:24;94.38;;;46.58;;
41043;SDS011;51680;49.806;18.774;2023-03-01T06:28:27;83.60;;;41.53;;
41043;SDS011;51680;49.806;18.774;2023-03-01T06:31:48;77.10;;;39.58;;
41043;SDS011;51680;49.806;18.774;2023-03-01T06:34:51;74.82;;;39.50;;
41043;SDS011;51680;49.806;18.774;2023-03-01T06:38:11;65.32;;;33.08;;
41043;SDS011;51680;49.806;18.774;2023-03-01T06:41:15;60.15;;;31.77;;
41043;SDS011;51680;49.806;18.774;2023-03-01T06:44:16;61.78;;;31.05;;
41043;SDS011;51680;49.806;18.774;2023-03-01T06:47:18;59.63;;;31.42;;
41043;SDS011;51680;49.806;18.774;2023-03-01T06:50:21;61.72;;;31.13;;
41043;SDS011;51680;49.806;18.774;2023-03-01T06:53:23;68.00;;;36.00;;
41043;SDS011;51680;49.806;18.774;2023-03-01T06:56:25;73.32;;;36.72;;
41043;SDS011;51680;49.806;18.774;2023-03-01T06:59:26;78.93;;;38.85;;
41043;SDS011;51680;49.806;18.774;2023-03-01T07:02:28;77.20;;;39.65;;
41043;SDS011;51680;49.806;18.774;2023-03-01T07:05:32;71.47;;;38.15;;
41043;SDS011;51680;49.806;18.774;2023-03-01T07:08:34;75.28;;;38.33;;
41043;SDS011;51680;49.806;18.774;2023-03-01T07:11:36;73.38;;;41.58;;
41043;SDS011;51680;49.806;18.774;2023-03-01T07:14:38;74.20;;;40.75;;
41043;SDS011;51680;49.806;18.774;2023-03-01T07:17:40;66.93;;;36.78;;
41043;SDS011;51680;49.806;18.774;2023-03-01T07:20:43;86.55;;;45.72;;
41043;SDS011;51680;49.806;18.774;2023-03-01T07:23:46;70.67;;;39.80;;
41043;SDS011;51680;49.806;18.774;2023-03-01T07:26:48;77.70;;;39.63;;
41043;SDS011;51680;49.806;18.774;2023-03-01T07:29:50;70.85;;;39.33;;
41043;SDS011;51680;49.806;18.774;2023-03-01T07:32:52;81.70;;;44.80;;
41043;SDS011;51680;49.806;18.774;2023-03-01T07:35:59;79.07;;;43.05;;
41043;SDS011;51680;49.806;18.774;2023-03-01T07:39:02;80.38;;;43.85;;
41043;SDS011;51680;49.806;18.774;2023-03-01T07:42:04;83.78;;;45.25;;
41043;SDS011;51680;49.806;18.774;2023-03-01T07:45:07;83.15;;;44.75;;
41043;SDS011;51680;49.806;18.774;2023-03-01T07:48:10;86.63;;;46.15;;
41043;SDS011;51680;49.806;18.774;2023-03-01T07:51:13;80.55;;;45.45;;
41043;SDS011;51680;49.806;18.774;2023-03-01T07:54:15;72.78;;;39.75;;
41043;SDS011;51680;49.806;18.774;2023-03-01T07:57:17;64.57;;;36.05;;
41043;SDS011;51680;49.806;18.774;2023-03-01T08:00:19;74.55;;;40.42;;
41043;SDS011;51680;49.806;18.774;2023-03-01T08:03:20;73.10;;;39.63;;
41043;SDS011;51680;49.806;18.774;2023-03-01T08:06:25;61.88;;;36.25;;
41043;SDS011;51680;49.806;18.774;2023-03-01T08:09:27;64.67;;;36.53;;
41043;SDS011;51680;49.806;18.774;2023-03-01T08:12:28;64.53;;;36.35;;
41043;SDS011;51680;49.806;18.774;2023-03-01T08:15:30;70.75;;;36.78;;
41043;SDS011;51680;49.806;18.774;2023-03-01T08:18:32;63.05;;;36.78;;
41043;SDS011;51680;49.806;18.774;2023-03-01T08:21:36;66.00;;;37.80;;
41043;SDS011;51680;49.806;18.774;2023-03-01T08:28:31;63.22;;;35.75;;
41043;SDS011;51680;49.806;18.774;2023-03-01T08:31:34;60.60;;;33.70;;
41043;SDS011;51680;49.806;18.774;2023-03-01T08:37:40;53.00;;;29.52;;
41043;SDS011;51680;49.806;18.774;2023-03-01T08:40:42;68.37;;;36.67;;
41043;SDS011;51680;49.806;18.774;2023-03-01T08:43:44;61.90;;;35.95;;
41043;SDS011;51680;49.806;18.774;2023-03-01T08:46:46;58.47;;;34.92;;
41043;SDS011;51680;49.806;18.774;2023-03-01T08:49:50;61.78;;;37.38;;
41043;SDS011;51680;49.806;18.774;2023-03-01T08:52:54;88.57;;;49.22;;
41043;SDS011;51680;49.806;18.774;2023-03-01T08:55:57;60.08;;;36.30;;
41043;SDS011;51680;49.806;18.774;2023-03-01T08:59:01;59.90;;;35.80;;
41043;SDS011;51680;49.806;18.774;2023-03-01T09:02:02;68.78;;;38.55;;
41043;SDS011;51680;49.806;18.774;2023-03-01T09:05:05;62.42;;;37.58;;
41043;SDS011;51680;49.806;18.774;2023-03-01T09:08:08;66.55;;;37.72;;
41043;SDS011;51680;49.806;18.774;2023-03-01T09:11:11;63.73;;;38.03;;
41043;SDS011;51680;49.806;18.774;2023-03-01T09:14:15;63.53;;;34.30;;
41043;SDS011;51680;49.806;18.774;2023-03-01T09:17:17;66.50;;;38.67;;
41043;SDS011;51680;49.806;18.774;2023-03-01T09:20:21;73.80;;;39.67;;
41043;SDS011;51680;49.806;18.774;2023-03-01T09:23:24;61.95;;;38.45;;
41043;SDS011;51680;49.806;18.774;2023-03-01T09:26:26;66.63;;;36.83;;
41043;SDS011;51680;49.806;18.774;2023-03-01T09:29:28;72.32;;;43.28;;
41043;SDS011;51680;49.806;18.774;2023-03-01T09:32:30;72.30;;;40.63;;
41043;SDS011;51680;49.806;18.774;2023-03-01T09:35:31;75.30;;;43.25;;
41043;SDS011;51680;49.806;18.774;2023-03-01T09:38:35;65.93;;;40.10;;
41043;SDS011;51680;49.806;18.774;2023-03-01T09:41:42;73.23;;;40.53;;
41043;SDS011;51680;49.806;18.774;2023-03-01T09:44:47;77.47;;;44.55;;
41043;SDS011;51680;49.806;18.774;2023-03-01T09:47:53;72.63;;;41.72;;
41043;SDS011;51680;49.806;18.774;2023-03-01T09:50:55;73.55;;;43.70;;
41043;SDS011;51680;49.806;18.774;2023-03-01T09:54:00;74.00;;;43.33;;
41043;SDS011;51680;49.806;18.774;2023-03-01T09:57:09;71.05;;;43.15;;
41043;SDS011;51680;49.806;18.774;2023-03-01T10:00:28;72.70;;;42.55;;
41043;SDS011;51680;49.806;18.774;2023-03-01T10:03:36;63.53;;;38.47;;
41043;SDS011;51680;49.806;18.774;2023-03-01T10:06:44;65.55;;;38.20;;
41043;SDS011;51680;49.806;18.774;2023-03-01T10:09:59;60.72;;;37.97;;
41043;SDS011;51680;49.806;18.774;2023-03-01T10:13:08;66.25;;;39.53;;
41043;SDS011;51680;49.806;18.774;2023-03-01T10:16:16;62.40;;;38.00;;
41043;SDS011;51680;49.806;18.774;2023-03-01T10:19:23;54.90;;;33.88;;
41043;SDS011;51680;49.806;18.774;2023-03-01T10:22:29;53.88;;;32.78;;
41043;SDS011;51680;49.806;18.774;2023-03-01T10:25:40;50.15;;;28.85;;
41043;SDS011;51680;49.806;18.774;2023-03-01T10:28:50;49.40;;;28.80;;
41043;SDS011;51680;49.806;18.774;2023-03-01T10:32:02;44.57;;;26.47;;
41043;SDS011;51680;49.806;18.774;2023-03-01T10:35:15;42.55;;;24.77;;
41043;SDS011;51680;49.806;18.774;2023-03-01T10:38:18;37.83;;;22.88;;
41043;SDS011;51680;49.806;18.774;2023-03-01T10:41:23;40.15;;;24.50;;
41043;SDS011;51680;49.806;18.774;2023-03-01T10:44:42;41.65;;;25.88;;
41043;SDS011;51680;49.806;18.774;2023-03-01T10:47:45;44.72;;;25.27;;
41043;SDS011;51680;49.806;18.774;2023-03-01T10:50:48;42.70;;;26.35;;
41043;SDS011;51680;49.806;18.774;2023-03-01T10:53:52;42.65;;;25.15;;
41043;SDS011;51680;49.806;18.774;2023-03-01T10:56:56;38.42;;;24.45;;
41043;SDS011;51680;49.806;18.774;2023-03-01T11:00:14;44.53;;;25.38;;
41043;SDS011;51680;49.806;18.774;2023-03-01T11:03:20;46.75;;;26.02;;
41043;SDS011;51680;49.806;18.774;2023-03-01T11:06:24;47.00;;;26.02;;
41043;SDS011;51680;49.806;18.774;2023-03-01T11:09:26;49.67;;;30.00;;
41043;SDS011;51680;49.806;18.774;2023-03-01T11:12:39;56.40;;;33.03;;
41043;SDS011;51680;49.806;18.774;2023-03-01T11:15:41;54.30;;;29.63;;
41043;SDS011;51680;49.806;18.774;2023-03-01T11:18:44;59.00;;;33.58;;
41043;SDS011;51680;49.806;18.774;2023-03-01T11:21:59;65.43;;;35.77;;
41043;SDS011;51680;49.806;18.774;2023-03-01T11:25:04;59.60;;;34.28;;
41043;SDS011;51680;49.806;18.774;2023-03-01T11:28:14;60.10;;;32.55;;
41043;SDS011;51680;49.806;18.774;2023-03-01T11:31:18;56.67;;;30.50;;
41043;SDS011;51680;49.806;18.774;2023-03-01T11:34:22;56.25;;;30.75;;
41043;SDS011;51680;49.806;18.774;2023-03-01T11:37:32;27.13;;;14.95;;
41043;SDS011;51680;49.806;18.774;2023-03-01T11:40:40;50.88;;;29.27;;
41043;SDS011;51680;49.806;18.774;2023-03-01T11:43:49;56.05;;;31.50;;
41043;SDS011;51680;49.806;18.774;2023-03-01T11:47:09;47.70;;;26.88;;
41043;SDS011;51680;49.806;18.774;2023-03-01T11:53:39;44.38;;;25.85;;
41043;SDS011;51680;49.806;18.774;2023-03-01T11:56:54;48.47;;;27.20;;
41043;SDS011;51680;49.806;18.774;2023-03-01T12:07:09;41.28;;;23.35;;
41043;SDS011;51680;49.806;18.774;2023-03-01T12:10:22;39.10;;;22.98;;
41043;SDS011;51680;49.806;18.774;2023-03-01T12:13:33;37.10;;;21.27;;
41043;SDS011;51680;49.806;18.774;2023-03-01T12:17:02;40.35;;;21.42;;
41043;SDS011;51680;49.806;18.774;2023-03-01T12:20:20;33.53;;;19.30;;
41043;SDS011;51680;49.806;18.774;2023-03-01T12:27:14;31.58;;;19.83;;
41043;SDS011;51680;49.806;18.774;2023-03-01T12:30:31;35.42;;;20.33;;
41043;SDS011;51680;49.806;18.774;2023-03-01T12:33:47;33.03;;;19.42;;
41043;SDS011;51680;49.806;18.774;2023-03-01T12:36:57;36.20;;;19.85;;
41043;SDS011;51680;49.806;18.774;2023-03-01T12:40:33;36.83;;;20.45;;
41043;SDS011;51680;49.806;18.774;2023-03-01T12:43:58;33.85;;;18.55;;
41043;SDS011;51680;49.806;18.774;2023-03-01T12:47:14;34.80;;;20.15;;
41043;SDS011;51680;49.806;18.774;2023-03-01T12:50:37;31.50;;;18.65;;
41043;SDS011;51680;49.806;18.774;2023-03-01T12:53:44;33.10;;;18.17;;
41043;SDS011;51680;49.806;18.774;2023-03-01T12:56:48;34.55;;;19.48;;
41043;SDS011;51680;49.806;18.774;2023-03-01T12:59:58;37.70;;;19.23;;
41043;SDS011;51680;49.806;18.774;2023-03-01T13:03:14;34.38;;;18.45;;
41043;SDS011;51680;49.806;18.774;2023-03-01T13:06:27;34.90;;;18.75;;
41043;SDS011;51680;49.806;18.774;2023-03-01T13:09:41;36.05;;;19.75;;
41043;SDS011;51680;49.806;18.774;2023-03-01T13:12:52;34.33;;;18.88;;
41043;SDS011;51680;49.806;18.774;2023-03-01T13:19:38;40.80;;;19.40;;
41043;SDS011;51680;49.806;18.774;2023-03-01T13:29:25;30.05;;;16.38;;
41043;SDS011;51680;49.806;18.774;2023-03-01T13:32:28;31.30;;;17.02;;
41043;SDS011;51680;49.806;18.774;2023-03-01T13:35:42;32.95;;;17.35;;
41043;SDS011;51680;49.806;18.774;2023-03-01T13:38:47;30.48;;;16.60;;
41043;SDS011;51680;49.806;18.774;2023-03-01T13:41:57;28.63;;;16.23;;
41043;SDS011;51680;49.806;18.774;2023-03-01T13:45:00;28.98;;;15.85;;
41043;SDS011;51680;49.806;18.774;2023-03-01T13:48:03;28.60;;;15.43;;
41043;SDS011;51680;49.806;18.774;2023-03-01T13:51:11;29.95;;;16.48;;
41043;SDS011;51680;49.806;18.774;2023-03-01T13:54:15;32.22;;;17.33;;
41043;SDS011;51680;49.806;18.774;2023-03-01T13:57:23;34.42;;;17.50;;
41043;SDS011;51680;49.806;18.774;2023-03-01T14:00:31;36.78;;;17.50;;
41043;SDS011;51680;49.806;18.774;2023-03-01T14:03:40;33.97;;;18.48;;
41043;SDS011;51680;49.806;18.774;2023-03-01T14:06:43;37.42;;;18.30;;
41043;SDS011;51680;49.806;18.774;2023-03-01T14:09:47;35.85;;;18.63;;
41043;SDS011;51680;49.806;18.774;2023-03-01T14:12:52;34.15;;;17.52;;
41043;SDS011;51680;49.806;18.774;2023-03-01T14:16:06;34.15;;;18.90;;
41043;SDS011;51680;49.806;18.774;2023-03-01T14:19:16;36.13;;;18.60;;
41043;SDS011;51680;49.806;18.774;2023-03-01T14:22:22;30.85;;;17.08;;
41043;SDS011;51680;49.806;18.774;2023-03-01T14:25:27;33.75;;;17.33;;
41043;SDS011;51680;49.806;18.774;2023-03-01T14:28:31;24.63;;;12.05;;
41043;SDS011;51680;49.806;18.774;2023-03-01T14:31:37;29.08;;;13.95;;
41043;SDS011;51680;49.806;18.774;2023-03-01T14:34:44;25.40;;;13.17;;
41043;SDS011;51680;49.806;18.774;2023-03-01T14:37:46;16.27;;;9.13;;
41043;SDS011;51680;49.806;18.774;2023-03-01T14:40:52;20.08;;;10.68;;
41043;SDS011;51680;49.806;18.774;2023-03-01T14:43:59;29.65;;;16.00;;
41043;SDS011;51680;49.806;18.774;2023-03-01T14:47:03;31.60;;;16.27;;
41043;SDS011;51680;49.806;18.774;2023-03-01T14:50:07;32.83;;;17.20;;
41043;SDS011;51680;49.806;18.774;2023-03-01T14:53:16;35.78;;;18.73;;
41043;SDS011;51680;49.806;18.774;2023-03-01T14:56:22;32.13;;;16.88;;
41043;SDS011;51680;49.806;18.774;2023-03-01T14:59:23;39.78;;;20.15;;
41043;SDS011;51680;49.806;18.774;2023-03-01T15:02:26;33.85;;;18.48;;
41043;SDS011;51680;49.806;18.774;2023-03-01T15:05:30;38.08;;;20.52;;
41043;SDS011;51680;49.806;18.774;2023-03-01T15:08:33;32.70;;;19.08;;
41043;SDS011;51680;49.806;18.774;2023-03-01T15:11:37;35.87;;;19.37;;
41043;SDS011;51680;49.806;18.774;2023-03-01T15:14:43;34.90;;;20.13;;
41043;SDS011;51680;49.806;18.774;2023-03-01T15:17:50;38.17;;;19.98;;
41043;SDS011;51680;49.806;18.774;2023-03-01T15:20:56;35.20;;;19.77;;
41043;SDS011;51680;49.806;18.774;2023-03-01T15:24:15;37.92;;;19.65;;
41043;SDS011;51680;49.806;18.774;2023-03-01T15:27:22;34.63;;;19.70;;
41043;SDS011;51680;49.806;18.774;2023-03-01T15:30:26;40.83;;;22.05;;
41043;SDS011;51680;49.806;18.774;2023-03-01T15:33:35;36.33;;;20.30;;
41043;SDS011;51680;49.806;18.774;2023-03-01T15:36:42;38.35;;;19.95;;
41043;SDS011;51680;49.806;18.774;2023-03-01T15:39:52;42.20;;;21.85;;
41043;SDS011;51680;49.806;18.774;2023-03-01T15:42:56;42.17;;;23.08;;
41043;SDS011;51680;49.806;18.774;2023-03-01T15:45:58;42.17;;;22.13;;
41043;SDS011;51680;49.806;18.774;2023-03-01T15:49:01;45.58;;;23.58;;
41043;SDS011;51680;49.806;18.774;2023-03-01T15:52:05;47.17;;;22.77;;
41043;SDS011;51680;49.806;18.774;2023-03-01T15:55:14;43.50;;;24.15;;
41043;SDS011;51680;49.806;18.774;2023-03-01T15:58:21;45.85;;;23.70;;
41043;SDS011;51680;49.806;18.774;2023-03-01T16:01:23;40.95;;;23.10;;
41043;SDS011;51680;49.806;18.774;2023-03-01T16:04:26;49.22;;;24.67;;
41043;SDS011;51680;49.806;18.774;2023-03-01T16:07:27;45.85;;;24.48;;
41043;SDS011;51680;49.806;18.774;2023-03-01T16:10:31;49.38;;;24.55;;
41043;SDS011;51680;49.806;18.774;2023-03-01T16:13:34;51.83;;;24.90;;
41043;SDS011;51680;49.806;18.774;2023-03-01T16:16:36;50.85;;;26.17;;
41043;SDS011;51680;49.806;18.774;2023-03-01T16:19:38;46.30;;;25.58;;
41043;SDS011;51680;49.806;18.774;2023-03-01T16:22:41;56.65;;;28.98;;
41043;SDS011;51680;49.806;18.774;2023-03-01T16:25:44;53.72;;;29.80;;
41043;SDS011;51680;49.806;18.774;2023-03-01T16:28:47;56.97;;;30.08;;
41043;SDS011;51680;49.806;18.774;2023-03-01T16:31:49;53.78;;;29.75;;
41043;SDS011;51680;49.806;18.774;2023-03-01T16:34:51;57.75;;;30.30;;
41043;SDS011;51680;49.806;18.774;2023-03-01T16:37:52;62.35;;;33.00;;
41043;SDS011;51680;49.806;18.774;2023-03-01T16:40:54;63.22;;;33.42;;
41043;SDS011;51680;49.806;18.774;2023-03-01T16:43:58;69.70;;;32.42;;
41043;SDS011;51680;49.806;18.774;2023-03-01T16:46:59;62.30;;;32.23;;
41043;SDS011;51680;49.806;18.774;2023-03-01T16:50:01;62.05;;;33.05;;
41043;SDS011;51680;49.806;18.774;2023-03-01T16:53:03;67.60;;;34.13;;
41043;SDS011;51680;49.806;18.774;2023-03-01T16:56:06;69.97;;;34.05;;
41043;SDS011;51680;49.806;18.774;2023-03-01T16:59:11;69.50;;;34.45;;
41043;SDS011;51680;49.806;18.774;2023-03-01T17:02:13;73.45;;;35.95;;
41043;SDS011;51680;49.806;18.774;2023-03-01T17:05:19;68.53;;;34.95;;
41043;SDS011;51680;49.806;18.774;2023-03-01T17:08:23;63.08;;;29.75;;
41043;SDS011;51680;49.806;18.774;2023-03-01T17:11:25;60.67;;;28.27;;
41043;SDS011;51680;49.806;18.774;2023-03-01T17:14:29;57.13;;;29.23;;
41043;SDS011;51680;49.806;18.774;2023-03-01T17:17:30;55.92;;;27.50;;
41043;SDS011;51680;49.806;18.774;2023-03-01T17:20:32;58.72;;;28.95;;
41043;SDS011;51680;49.806;18.774;2023-03-01T17:23:35;58.45;;;28.42;;
41043;SDS011;51680;49.806;18.774;2023-03-01T17:26:38;53.22;;;27.48;;
41043;SDS011;51680;49.806;18.774;2023-03-01T17:29:42;62.40;;;30.40;;
41043;SDS011;51680;49.806;18.774;2023-03-01T17:32:44;62.97;;;32.42;;
41043;SDS011;51680;49.806;18.774;2023-03-01T17:35:46;75.63;;;38.10;;
41043;SDS011;51680;49.806;18.774;2023-03-01T17:38:48;87.78;;;40.55;;
41043;SDS011;51680;49.806;18.774;2023-03-01T17:41:50;82.35;;;42.60;;
41043;SDS011;51680;49.806;18.774;2023-03-01T17:44:53;80.97;;;41.28;;
41043;SDS011;51680;49.806;18.774;2023-03-01T17:47:54;82.30;;;41.38;;
41043;SDS011;51680;49.806;18.774;2023-03-01T17:50:56;81.55;;;39.40;;
41043;SDS011;51680;49.806;18.774;2023-03-01T17:53:58;72.53;;;36.42;;
41043;SDS011;51680;49.806;18.774;2023-03-01T17:57:00;70.25;;;36.35;;
41043;SDS011;51680;49.806;18.774;2023-03-01T18:00:04;66.55;;;33.63;;
41043;SDS011;51680;49.806;18.774;2023-03-01T18:03:12;64.28;;;32.58;;
41043;SDS011;51680;49.806;18.774;2023-03-01T18:06:14;67.22;;;31.83;;
41043;SDS011;51680;49.806;18.774;2023-03-01T18:09:17;68.13;;;33.50;;
41043;SDS011;51680;49.806;18.774;2023-03-01T18:12:19;77.65;;;36.28;;
41043;SDS011;51680;49.806;18.774;2023-03-01T18:15:22;78.22;;;36.45;;
41043;SDS011;51680;49.806;18.774;2023-03-01T18:18:24;94.47;;;40.83;;
41043;SDS011;51680;49.806;18.774;2023-03-01T18:21:26;92.05;;;41.15;;